メインページ
METAR-TAF:

METAR-TAF

空港 :

ヘルシンキ, フィンランド

ヘルシンキ・ヴァンター国際空港

緯度: 60-19N, 経度: 024-58E, 海抜: 51m

現時点の気象観測

当レポートは10分前の05:50(UTC)に作成
南西の風 10kt
気温 17°C
湿度 72%
気圧 1013 hPa
視程10km以上
高度1800ftの雲はほとんどない
高度20000ftの千切れ雲あり

METAR: EFHK 200550Z 22010KT 9999 FEW018 BKN200 17/12 Q1013 NOSIG

時間: 09:00 (06:00 UTC)

予報

当レポートは32分前の05:28(UTC)に作成
予報は20日の 06時(UTC)から 21日の 06時(UTC)まで有効
の風 9kt
視程10km以上
高度1200ftの雲はほとんどない
高度20000ftの雲は散在している
20日の 07時(UTC)から 20日の 15時(UTC)まで一時的に
南/南西の風 10kt、最大20ktの突風を伴う

TAF: EFHK 200528Z 2006/2106 19009KT 9999 FEW012 SCT200 TEMPO 2007/2015 20010G20KT

4,000以上の空港の気象観測と天気予報(METAR報とTAF報)

利用可能な観測所は地図上に黄色い丸と赤い丸で示す。

丸の上にカーソルを重ねると観測所名を参照できる。

次にクリックすると気象観測と天気予報を参照できる。

マップの切り替え:黒色「×」印の緑ボタンをクリックして拡大、「-」印の緑ボタンをクリックして縮小、緑色の三角印をクリックして隣りの地図に切り替え


METAR-TAF: